Time;durP1;ratioP1;P1;durP2;ratioP2;P2;SDS_P1;SDS_P2;PMS_P1;PMS_P2;Temp;Humidity;BMP_temperature;BMP_pressure;BME280_temperature;BME280_humidity;BME280_pressure;Samples;Min_cycle;Max_cycle;Signal;HPM_P1;HPM_P2
2023/07/02 00:01:14;;;;;;;27.10;21.70;;;;;;;20.93;78.91;97802.47;137268;1274;22211;-83
2023/07/02 00:04:35;;;;;;;23.80;21.20;;;;;;;20.94;78.90;97802.06;136663;1274;324833;-83
2023/07/02 00:07:37;;;;;;;25.30;22.20;;;;;;;20.94;78.75;97798.71;136788;1274;24900;-83
2023/07/02 00:10:41;;;;;;;25.40;22.70;;;;;;;20.93;78.99;97804.04;137343;1274;22148;-83
2023/07/02 00:13:42;;;;;;;25.80;22.20;;;;;;;20.96;79.07;97804.98;137034;1274;22143;-82
2023/07/02 00:16:43;;;;;;;30.20;23.50;;;;;;;20.94;78.81;97807.91;136871;1274;22311;-82
2023/07/02 00:19:46;;;;;;;22.80;20.50;;;;;;;20.91;78.79;97807.85;137425;1273;22862;-82
2023/07/02 00:22:47;;;;;;;25.20;22.50;;;;;;;20.91;78.46;97806.80;137037;1272;22749;-83
2023/07/02 00:25:48;;;;;;;27.20;21.10;;;;;;;20.87;78.28;97807.70;136948;1274;22547;-83
2023/07/02 00:28:49;;;;;;;23.50;21.10;;;;;;;20.84;78.19;97803.23;137198;1262;22741;-82
2023/07/02 00:31:50;;;;;;;21.60;19.40;;;;;;;20.83;78.13;97802.05;137216;1274;22122;-83
2023/07/02 00:34:52;;;;;;;23.40;20.50;;;;;;;20.83;78.10;97803.84;136778;1274;22213;-82
2023/07/02 00:37:53;;;;;;;22.40;20.20;;;;;;;20.81;77.93;97803.75;137006;1274;22579;-81
2023/07/02 00:40:54;;;;;;;22.20;19.90;;;;;;;20.78;77.81;97805.27;137477;1274;22132;-83
2023/07/02 00:43:55;;;;;;;24.50;21.50;;;;;;;20.69;76.91;97802.85;137043;1274;22145;-83
2023/07/02 00:46:56;;;;;;;28.00;20.80;;;;;;;20.56;77.54;97801.48;136995;1274;22192;-82
2023/07/02 00:49:57;;;;;;;27.20;22.30;;;;;;;20.55;77.66;97800.11;137425;1274;22678;-83
2023/07/02 00:52:59;;;;;;;22.80;20.30;;;;;;;20.57;77.88;97797.90;136801;1274;22529;-82
2023/07/02 00:56:00;;;;;;;26.80;20.90;;;;;;;20.58;77.87;97792.40;136764;1271;22640;-82
2023/07/02 00:59:01;;;;;;;23.30;20.80;;;;;;;20.58;77.67;97789.04;137314;1274;22580;-83
2023/07/02 01:02:02;;;;;;;24.60;20.00;;;;;;;20.55;77.59;97794.09;137058;1274;22546;-80
2023/07/02 01:05:03;;;;;;;27.60;21.10;;;;;;;20.57;77.59;97788.91;136738;1274;22399;-82
2023/07/02 01:08:05;;;;;;;25.70;20.10;;;;;;;20.59;77.73;97788.63;137230;1274;22544;-82
2023/07/02 01:11:06;;;;;;;25.10;20.70;;;;;;;20.60;77.42;97788.20;137159;1274;22556;-82
2023/07/02 01:14:07;;;;;;;22.20;20.10;;;;;;;20.58;77.12;97789.02;136745;1274;22536;-81
2023/07/02 01:17:08;;;;;;;23.80;20.50;;;;;;;20.52;77.14;97787.16;137055;1274;22567;-81
2023/07/02 01:20:09;;;;;;;27.30;19.00;;;;;;;20.51;77.27;97784.20;137382;1274;22382;-82
2023/07/02 01:23:10;;;;;;;22.00;17.90;;;;;;;20.50;77.25;97785.67;136985;1274;22256;-81
2023/07/02 01:26:12;;;;;;;22.20;19.80;;;;;;;20.51;77.27;97788.11;136920;1274;22631;-81
2023/07/02 01:29:13;;;;;;;23.60;19.90;;;;;;;20.50;77.08;97782.87;137561;1274;22240;-82
2023/07/02 01:32:14;;;;;;;20.50;18.40;;;;;;;20.48;77.07;97781.71;136976;1274;22544;-82
2023/07/02 01:35:16;;;;;;;21.20;17.80;;;;;;;20.47;77.01;97779.29;136956;1274;22543;-79
2023/07/02 01:38:17;;;;;;;19.20;17.20;;;;;;;20.44;76.63;97777.65;137290;1274;22543;-81
2023/07/02 01:41:18;;;;;;;23.40;18.50;;;;;;;20.39;76.29;97772.72;137141;1273;22231;-82
2023/07/02 01:44:21;;;;;;;20.20;18.20;;;;;;;20.35;76.34;97769.87;136962;1274;22659;-82
2023/07/02 01:47:22;;;;;;;19.90;17.90;;;;;;;20.32;76.31;97770.86;137199;1274;25489;-81
2023/07/02 01:50:23;;;;;;;20.20;17.60;;;;;;;20.31;76.10;97768.64;137361;1274;22671;-82
2023/07/02 01:53:24;;;;;;;21.00;18.80;;;;;;;20.28;76.15;97762.41;136928;1274;22548;-82
2023/07/02 01:56:26;;;;;;;22.90;18.70;;;;;;;20.26;75.90;97767.81;136641;1274;22493;-81
2023/07/02 01:59:27;;;;;;;23.50;18.80;;;;;;;20.22;75.93;97763.92;137103;1274;22237;-83
2023/07/02 02:02:28;;;;;;;24.70;18.30;;;;;;;20.19;76.04;97764.23;136773;1274;22613;-82
2023/07/02 02:05:29;;;;;;;26.00;19.20;;;;;;;20.19;75.96;97761.21;136954;1274;23158;-82
2023/07/02 02:08:30;;;;;;;18.70;15.90;;;;;;;20.20;75.67;97756.08;137440;1274;22407;-82
2023/07/02 02:11:31;;;;;;;20.80;17.00;;;;;;;20.18;75.60;97755.80;136740;1274;22518;-83
2023/07/02 02:14:33;;;;;;;22.60;18.20;;;;;;;20.18;75.62;97756.86;136986;1274;22372;-83
2023/07/02 02:17:35;;;;;;;21.50;19.20;;;;;;;20.17;75.54;97756.55;137499;1274;22663;-82
2023/07/02 02:20:36;;;;;;;22.70;18.00;;;;;;;20.14;75.31;97758.99;136945;1274;22295;-81
2023/07/02 02:23:37;;;;;;;22.70;18.90;;;;;;;20.15;75.62;97760.50;136746;1274;22163;-81
2023/07/02 02:26:38;;;;;;;20.50;18.40;;;;;;;20.16;75.72;97756.75;137421;1274;22563;-82
2023/07/02 02:29:39;;;;;;;22.20;19.30;;;;;;;20.17;75.88;97757.41;136859;1274;22544;-83
2023/07/02 02:32:40;;;;;;;22.00;18.50;;;;;;;20.25;75.75;97757.08;136884;1274;22547;-83
2023/07/02 02:35:41;;;;;;;21.00;17.90;;;;;;;20.26;75.37;97752.95;137241;1274;25347;-82
2023/07/02 02:38:42;;;;;;;22.00;18.70;;;;;;;20.28;75.28;97754.13;136838;1274;22546;-81
2023/07/02 02:41:44;;;;;;;23.90;18.20;;;;;;;20.26;74.97;97758.94;136858;1274;22531;-82
2023/07/02 02:44:45;;;;;;;21.20;18.50;;;;;;;20.25;75.00;97759.91;137220;1274;22476;-82
2023/07/02 02:47:46;;;;;;;22.30;19.90;;;;;;;20.19;74.47;97755.75;137295;1274;22251;-82
2023/07/02 02:50:47;;;;;;;21.90;19.20;;;;;;;20.10;74.73;97755.43;136963;1274;22509;-81
2023/07/02 02:53:48;;;;;;;24.10;19.30;;;;;;;20.11;75.20;97755.58;137148;1274;24269;-82
2023/07/02 02:56:49;;;;;;;21.60;19.30;;;;;;;20.19;75.18;97755.06;137009;1274;22186;-83
2023/07/02 02:59:50;;;;;;;21.30;18.80;;;;;;;20.22;74.97;97756.67;136741;1274;22549;-82
2023/07/02 03:02:51;;;;;;;19.80;17.50;;;;;;;20.24;75.06;97761.86;137243;1274;22160;-82
2023/07/02 03:05:53;;;;;;;21.10;18.40;;;;;;;20.32;74.71;97759.41;136625;1274;22563;-82
2023/07/02 03:08:54;;;;;;;20.30;18.10;;;;;;;20.38;74.40;97755.96;136686;1274;22551;-82
2023/07/02 03:11:55;;;;;;;24.70;19.20;;;;;;;20.36;73.55;97758.89;137228;1274;22489;-82
2023/07/02 03:14:56;;;;;;;61.60;20.80;;;;;;;20.27;74.23;97758.40;136976;1274;22581;-82
2023/07/02 03:17:57;;;;;;;77.50;22.60;;;;;;;20.34;74.15;97761.94;136875;1274;22271;-83
2023/07/02 03:20:59;;;;;;;117.30;26.30;;;;;;;20.32;73.56;97761.67;137172;1267;22535;-82
2023/07/02 03:24:00;;;;;;;70.60;22.20;;;;;;;20.30;74.17;97764.28;137201;1274;22045;-82
2023/07/02 03:27:01;;;;;;;43.80;19.40;;;;;;;20.41;73.97;97762.05;136715;1274;22819;-82
2023/07/02 03:30:03;;;;;;;35.60;18.90;;;;;;;20.47;73.83;97758.60;137485;1274;22154;-82
2023/07/02 03:33:04;;;;;;;134.20;29.10;;;;;;;20.52;73.53;97757.87;136844;1274;22611;-82
2023/07/02 03:36:05;;;;;;;36.10;18.90;;;;;;;20.55;73.10;97753.44;136397;1274;22274;-82
2023/07/02 03:39:07;;;;;;;56.70;21.60;;;;;;;20.57;73.11;97754.06;136975;1274;22626;-81
2023/07/02 03:42:08;;;;;;;36.30;18.70;;;;;;;20.63;72.90;97756.79;136879;1274;22152;-83
2023/07/02 03:45:09;;;;;;;79.00;22.30;;;;;;;20.76;72.70;97755.84;137014;1274;23589;-82
2023/07/02 03:48:10;;;;;;;28.60;17.60;;;;;;;20.86;72.51;97759.65;137365;1274;22420;-83
2023/07/02 03:51:12;;;;;;;34.00;17.80;;;;;;;21.02;72.29;97755.56;136822;1274;22668;-83
2023/07/02 03:54:13;;;;;;;31.70;17.10;;;;;;;21.17;71.94;97755.54;136587;1274;22540;-81
2023/07/02 03:57:14;;;;;;;27.60;16.40;;;;;;;21.32;71.56;97759.27;137341;1274;22264;-82
2023/07/02 04:00:15;;;;;;;27.80;17.80;;;;;;;21.41;71.17;97762.55;136813;1274;22594;-82
2023/07/02 04:03:17;;;;;;;27.80;17.60;;;;;;;21.50;70.81;97760.67;136637;1274;23276;-82
2023/07/02 04:06:18;;;;;;;59.00;19.40;;;;;;;21.60;70.32;97757.66;136317;1274;22552;-82
2023/07/02 04:09:19;;;;;;;30.80;17.00;;;;;;;21.73;70.37;97755.13;136643;1274;22405;-82
2023/07/02 04:12:20;;;;;;;43.30;18.50;;;;;;;22.00;70.22;97753.39;137197;1274;22551;-80
2023/07/02 04:15:21;;;;;;;35.60;17.40;;;;;;;22.12;68.96;97754.40;136775;1274;23555;-83
2023/07/02 04:18:23;;;;;;;64.00;20.60;;;;;;;22.07;69.02;97752.71;136711;1274;22305;-81
2023/07/02 04:21:24;;;;;;;36.60;18.10;;;;;;;22.07;69.06;97749.70;136892;1274;22472;-81
2023/07/02 04:24:26;;;;;;;32.40;17.80;;;;;;;22.19;69.26;97751.70;136292;1274;22556;-81
2023/07/02 04:27:27;;;;;;;40.80;18.00;;;;;;;22.35;68.80;97755.52;136314;1274;25393;-83
2023/07/02 04:30:29;;;;;;;32.10;16.90;;;;;;;22.37;68.38;97752.02;136358;1274;22556;-81
2023/07/02 04:33:35;;;;;;;20.90;16.10;;;;;;;22.20;68.49;97745.83;136258;1274;24202;-83
2023/07/02 04:36:37;;;;;;;23.40;15.30;;;;;;;22.19;69.06;97738.24;136519;1274;22570;-82
2023/07/02 04:39:39;;;;;;;22.90;14.70;;;;;;;22.22;68.69;97747.49;137262;1274;22607;-82
2023/07/02 04:42:40;;;;;;;26.30;17.10;;;;;;;22.17;68.63;97755.00;136648;1274;22563;-80
2023/07/02 04:45:45;;;;;;;28.20;16.60;;;;;;;22.13;68.32;97752.73;136456;1274;22564;-82
2023/07/02 04:48:46;;;;;;;33.10;17.00;;;;;;;22.10;69.01;97757.15;136455;1274;22495;-82
2023/07/02 04:51:48;;;;;;;25.80;13.80;;;;;;;22.18;68.97;97760.60;136532;1251;22543;-80
2023/07/02 04:54:50;;;;;;;24.70;15.30;;;;;;;22.10;68.88;97763.52;136265;1274;22553;-81
2023/07/02 04:57:52;;;;;;;23.10;15.60;;;;;;;22.08;69.01;97766.30;136378;1274;26131;-81
2023/07/02 05:00:54;;;;;;;31.90;16.40;;;;;;;21.96;69.46;97769.16;136320;1274;22170;-83
2023/07/02 05:03:55;;;;;;;28.50;18.30;;;;;;;21.86;69.66;97769.88;136646;1274;24721;-81
2023/07/02 05:06:56;;;;;;;24.30;16.30;;;;;;;21.79;69.85;97772.52;136948;1274;22207;-82
2023/07/02 05:09:59;;;;;;;20.70;15.40;;;;;;;21.56;70.15;97773.45;136543;1274;22180;-83
2023/07/02 05:13:00;;;;;;;20.60;14.00;;;;;;;21.59;70.41;97774.39;136963;1274;23291;-81
2023/07/02 05:16:02;;;;;;;22.80;14.80;;;;;;;21.67;70.62;97775.44;136751;1274;22486;-82
2023/07/02 05:19:03;;;;;;;18.60;14.30;;;;;;;21.69;70.72;97777.30;136707;1263;22244;-81
2023/07/02 05:22:04;;;;;;;17.30;14.80;;;;;;;21.85;70.76;97781.80;137094;1274;22633;-81
2023/07/02 05:25:06;;;;;;;23.90;15.70;;;;;;;21.85;70.15;97786.41;136725;1274;22142;-82
2023/07/02 05:28:09;;;;;;;20.50;14.70;;;;;;;21.87;70.59;97787.17;136596;1274;22567;-82
2023/07/02 05:31:10;;;;;;;18.80;14.50;;;;;;;21.96;69.55;97791.69;136968;1274;22565;-81
2023/07/02 05:34:12;;;;;;;18.40;13.90;;;;;;;21.60;69.78;97796.48;136720;1274;22349;-82
2023/07/02 05:37:13;;;;;;;19.40;14.50;;;;;;;21.39;70.44;97797.85;136869;1274;22822;-82
2023/07/02 05:40:15;;;;;;;16.30;13.70;;;;;;;21.32;70.99;97793.42;137003;1274;22177;-82
2023/07/02 05:43:16;;;;;;;15.80;12.80;;;;;;;21.37;70.54;97803.97;136745;1274;22468;-82
2023/07/02 05:46:17;;;;;;;16.10;13.60;;;;;;;21.26;71.01;97798.65;136513;1274;22545;-82
2023/07/02 05:49:18;;;;;;;15.10;12.70;;;;;;;21.40;70.91;97801.15;137201;1274;22390;-82
2023/07/02 05:52:19;;;;;;;21.60;11.90;;;;;;;21.61;70.13;97800.84;136782;1274;22573;-81
2023/07/02 05:55:21;;;;;;;17.10;13.10;;;;;;;21.58;69.14;97804.70;136674;1274;22570;-82
2023/07/02 05:58:22;;;;;;;19.90;14.40;;;;;;;21.42;69.71;97806.34;137036;1274;22490;-83
2023/07/02 06:01:23;;;;;;;19.90;13.20;;;;;;;21.40;69.77;97809.15;136861;1274;23090;-82
2023/07/02 06:04:24;;;;;;;19.30;12.80;;;;;;;21.37;69.85;97813.55;136711;1274;22458;-82
2023/07/02 06:07:26;;;;;;;13.20;11.20;;;;;;;21.39;69.62;97810.73;137102;1274;22558;-81
2023/07/02 06:10:27;;;;;;;15.30;10.40;;;;;;;21.41;69.24;97813.52;137116;1274;22335;-81
2023/07/02 06:13:28;;;;;;;18.60;10.50;;;;;;;21.41;68.93;97814.59;136863;1274;22176;-82
2023/07/02 06:16:29;;;;;;;12.80;10.50;;;;;;;21.45;68.62;97820.05;136896;1266;24855;-81
2023/07/02 06:19:31;;;;;;;12.90;11.20;;;;;;;21.35;68.53;97817.02;137357;1274;22614;-82
2023/07/02 06:22:32;;;;;;;13.50;9.40;;;;;;;21.48;68.73;97819.54;136879;1274;22354;-82
2023/07/02 06:25:33;;;;;;;12.20;9.20;;;;;;;21.44;67.87;97819.02;136810;1267;22543;-81
2023/07/02 06:28:35;;;;;;;12.60;10.00;;;;;;;21.49;68.36;97822.34;137424;1274;22299;-81
2023/07/02 06:31:37;;;;;;;13.90;10.30;;;;;;;21.53;68.30;97825.29;136674;1274;22634;-82
2023/07/02 06:34:38;;;;;;;12.90;9.00;;;;;;;21.58;67.65;97826.81;136861;1272;22540;-80
2023/07/02 06:37:39;;;;;;;13.60;9.80;;;;;;;21.54;67.61;97824.55;137525;1274;22923;-82
2023/07/02 06:40:40;;;;;;;17.00;8.60;;;;;;;21.41;67.90;97820.92;136834;1274;22877;-82
2023/07/02 06:43:42;;;;;;;9.80;8.50;;;;;;;21.48;67.99;97826.79;136967;1274;22380;-82
2023/07/02 06:46:43;;;;;;;13.60;8.10;;;;;;;21.63;67.42;97827.13;137330;1274;22219;-83
2023/07/02 06:49:44;;;;;;;13.20;8.40;;;;;;;21.59;67.26;97829.76;136866;1274;22174;-82
2023/07/02 06:52:45;;;;;;;12.00;8.20;;;;;;;21.65;67.56;97830.23;136933;1274;22475;-81
2023/07/02 06:55:46;;;;;;;16.30;8.50;;;;;;;21.75;66.91;97832.95;137339;1274;22860;-80
2023/07/02 06:58:48;;;;;;;9.50;7.50;;;;;;;21.70;66.64;97838.17;137087;1274;22674;-81
2023/07/02 07:01:49;;;;;;;14.60;7.30;;;;;;;21.68;66.57;97840.34;137077;1274;22386;-81
2023/07/02 07:04:50;;;;;;;10.30;6.60;;;;;;;21.66;66.62;97840.96;137032;1274;25379;-80
2023/07/02 07:07:51;;;;;;;8.10;6.10;;;;;;;21.90;66.78;97841.23;137107;1274;22477;-80
2023/07/02 07:10:53;;;;;;;10.40;6.40;;;;;;;22.23;66.61;97842.59;137159;1274;22376;-81
2023/07/02 07:13:54;;;;;;;8.30;5.70;;;;;;;22.46;65.02;97844.80;136926;1274;22554;-81
2023/07/02 07:16:55;;;;;;;7.30;6.20;;;;;;;22.46;65.17;97843.05;137167;1274;22149;-81
2023/07/02 07:19:56;;;;;;;7.40;5.90;;;;;;;22.65;64.86;97849.30;136871;1274;23051;-81
2023/07/02 07:22:58;;;;;;;9.30;5.70;;;;;;;22.62;64.25;97852.10;136864;1274;22554;-80
2023/07/02 07:25:59;;;;;;;11.60;5.50;;;;;;;22.53;64.73;97856.32;137265;1274;22206;-79
2023/07/02 07:29:00;;;;;;;7.60;4.80;;;;;;;22.88;63.95;97860.55;136798;1274;22198;-81
2023/07/02 07:32:01;;;;;;;6.00;4.50;;;;;;;23.30;62.46;97865.54;136819;1270;22164;-81
2023/07/02 07:35:02;;;;;;;8.30;5.20;;;;;;;23.33;61.08;97872.27;137453;1274;22275;-80
2023/07/02 07:38:03;;;;;;;5.50;4.30;;;;;;;23.09;61.92;97872.88;136770;1274;22184;-81
2023/07/02 07:41:05;;;;;;;6.10;4.00;;;;;;;22.98;62.38;97871.02;136807;1274;22411;-82
2023/07/02 07:44:06;;;;;;;6.20;4.50;;;;;;;23.02;62.04;97870.27;137279;1270;22625;-81
2023/07/02 07:47:07;;;;;;;4.00;3.70;;;;;;;23.23;61.86;97868.93;137021;1274;22308;-82
2023/07/02 07:50:10;;;;;;;9.30;4.50;;;;;;;23.62;61.16;97871.42;136749;1274;22234;-81
2023/07/02 07:53:11;;;;;;;4.40;3.80;;;;;;;24.07;60.01;97870.80;137072;1274;22539;-81
2023/07/02 07:56:12;;;;;;;5.20;3.20;;;;;;;24.35;58.82;97868.16;137031;1274;22675;-81
2023/07/02 07:59:14;;;;;;;5.40;3.20;;;;;;;24.33;57.70;97863.46;136680;1274;25495;-81
2023/07/02 08:02:15;;;;;;;5.10;2.90;;;;;;;24.52;58.20;97863.73;136783;1274;22584;-81
2023/07/02 08:05:16;;;;;;;5.30;2.90;;;;;;;24.67;57.48;97869.60;136910;1259;22218;-82
2023/07/02 08:08:18;;;;;;;6.30;3.20;;;;;;;24.69;56.39;97873.91;136733;1267;22164;-81
2023/07/02 08:11:19;;;;;;;7.50;3.60;;;;;;;24.47;56.62;97874.21;136991;1274;22605;-81
2023/07/02 08:14:20;;;;;;;3.10;2.80;;;;;;;24.09;57.38;97885.41;136840;1274;25498;-82
2023/07/02 08:17:21;;;;;;;5.60;3.70;;;;;;;24.00;58.13;97893.95;136802;1274;22211;-81
2023/07/02 08:20:22;;;;;;;5.20;3.30;;;;;;;23.95;58.56;97894.95;136961;1274;23634;-81
2023/07/02 08:23:24;;;;;;;3.00;2.70;;;;;;;23.69;59.49;97901.63;136702;1274;22265;-82
2023/07/02 08:26:25;;;;;;;4.80;2.70;;;;;;;23.38;60.60;97910.36;136593;1274;22220;-82
2023/07/02 08:29:26;;;;;;;4.80;2.40;;;;;;;23.13;61.12;97913.48;136997;1274;25408;-79
2023/07/02 08:32:27;;;;;;;4.20;2.70;;;;;;;22.93;62.08;97923.60;136582;1274;22562;-81
2023/07/02 08:35:28;;;;;;;3.80;3.00;;;;;;;22.66;63.36;97927.83;136519;1274;22219;-81
2023/07/02 08:38:29;;;;;;;4.40;3.10;;;;;;;22.40;64.60;97933.93;137221;1274;22957;-82
2023/07/02 08:41:31;;;;;;;3.50;3.00;;;;;;;22.10;66.17;97934.65;136812;1274;22170;-82
2023/07/02 08:44:32;;;;;;;6.90;3.20;;;;;;;21.87;67.66;97936.27;136572;1274;22536;-82
2023/07/02 08:47:35;;;;;;;6.50;3.00;;;;;;;21.68;68.75;97937.71;137193;1274;22304;-82
2023/07/02 08:50:36;;;;;;;6.80;3.20;;;;;;;21.62;71.06;97938.70;136672;1274;22326;-82
2023/07/02 08:53:37;;;;;;;3.30;2.90;;;;;;;21.46;73.17;97941.23;136865;1274;22254;-82
2023/07/02 08:56:38;;;;;;;3.40;3.00;;;;;;;21.44;75.08;97940.99;137321;1274;22540;-82
2023/07/02 08:59:39;;;;;;;4.30;2.80;;;;;;;21.79;73.94;97941.28;136590;1274;22201;-81
2023/07/02 09:02:40;;;;;;;6.50;3.20;;;;;;;22.24;73.21;97943.91;136880;1274;22635;-82
2023/07/02 09:05:43;;;;;;;3.80;3.20;;;;;;;22.39;73.09;97941.57;137241;1274;22557;-81
2023/07/02 09:08:48;;;;;;;6.20;3.60;;;;;;;22.57;72.39;97942.45;136812;1274;22910;-82
2023/07/02 09:11:49;;;;;;;3.00;2.60;;;;;;;22.82;71.47;97942.26;136798;1274;22230;-82
2023/07/02 09:14:50;;;;;;;7.60;3.50;;;;;;;23.12;70.63;97948.47;137001;1274;22556;-82
2023/07/02 09:17:51;;;;;;;5.40;3.30;;;;;;;23.31;69.89;97952.62;137001;1273;22547;-82
2023/07/02 09:20:52;;;;;;;2.70;2.50;;;;;;;23.79;69.02;97952.56;136663;1274;22546;-83
2023/07/02 09:23:54;;;;;;;3.70;3.10;;;;;;;24.10;67.70;97948.98;137172;1274;22612;-82
2023/07/02 09:26:58;;;;;;;3.20;3.00;;;;;;;24.57;66.04;97951.32;137136;1274;22770;-82
2023/07/02 09:29:59;;;;;;;3.40;2.90;;;;;;;24.91;64.63;97948.27;136704;1274;22172;-83
2023/07/02 09:33:00;;;;;;;7.70;2.80;;;;;;;24.92;63.33;97950.81;136814;1273;22738;-81
2023/07/02 09:36:02;;;;;;;7.90;5.90;;;;;;;24.82;63.20;97946.81;137239;1274;22213;-83
2023/07/02 09:39:04;;;;;;;4.70;3.40;;;;;;;24.64;63.70;97956.26;136969;1274;22512;-81
2023/07/02 09:42:05;;;;;;;4.30;3.40;;;;;;;23.76;65.76;97958.58;136829;1274;22155;-81
2023/07/02 09:45:07;;;;;;;3.40;3.10;;;;;;;23.60;67.67;97959.65;137394;1274;22318;-83
2023/07/02 09:48:08;;;;;;;6.00;2.90;;;;;;;23.70;67.48;97955.73;136879;1274;22734;-82
2023/07/02 09:51:09;;;;;;;4.00;3.30;;;;;;;23.64;67.12;97954.79;136786;1274;23049;-82
2023/07/02 09:54:10;;;;;;;4.40;3.10;;;;;;;23.73;67.64;97953.58;137315;1274;22537;-81
2023/07/02 09:57:11;;;;;;;3.70;2.60;;;;;;;23.90;66.56;97956.94;136943;1274;22370;-82
2023/07/02 10:00:13;;;;;;;3.40;2.80;;;;;;;23.53;66.26;97959.63;136770;1274;22410;-82
2023/07/02 10:03:14;;;;;;;3.10;2.50;;;;;;;23.55;67.01;97956.20;137273;1274;23319;-82
2023/07/02 10:06:15;;;;;;;9.30;3.20;;;;;;;24.06;66.28;97953.67;136998;1266;22155;-82
2023/07/02 10:09:16;;;;;;;3.10;2.40;;;;;;;24.46;65.28;97951.63;136841;1274;22539;-82
2023/07/02 10:12:17;;;;;;;3.80;2.40;;;;;;;24.65;64.03;97946.20;136676;1274;24965;-81
2023/07/02 10:15:18;;;;;;;2.40;2.20;;;;;;;25.01;63.47;97941.79;136881;1274;22555;-82
2023/07/02 10:18:19;;;;;;;2.90;2.10;;;;;;;25.37;61.59;97940.44;136661;1274;22657;-82
2023/07/02 10:21:21;;;;;;;4.10;2.10;;;;;;;25.53;60.91;97932.32;136966;1274;24946;-81
2023/07/02 10:24:22;;;;;;;3.40;2.20;;;;;;;25.79;59.85;97936.79;137084;1274;25529;-82
2023/07/02 10:27:23;;;;;;;5.90;2.10;;;;;;;25.84;59.60;97928.44;136850;1274;22550;-80
2023/07/02 10:30:24;;;;;;;2.40;2.20;;;;;;;25.81;59.26;97934.34;136998;1274;22695;-83
2023/07/02 10:33:25;;;;;;;1.90;1.80;;;;;;;25.77;59.17;97932.23;136959;1274;22560;-82
2023/07/02 10:36:26;;;;;;;2.80;2.20;;;;;;;25.64;58.75;97934.49;136795;1274;22140;-83
2023/07/02 10:39:30;;;;;;;3.90;2.10;;;;;;;25.31;59.57;97933.15;136398;1274;22702;-85
2023/07/02 10:42:32;;;;;;;;;;;;;;;25.00;60.76;97938.27;137361;1274;22500;-82
2023/07/02 10:45:36;;;;;;;2.50;2.30;;;;;;;24.68;61.72;97951.55;136719;1274;22418;-83
2023/07/02 10:48:37;;;;;;;;;;;;;;;23.91;64.01;97949.03;136844;1274;22707;-83
2023/07/02 10:51:38;;;;;;;4.50;2.50;;;;;;;23.65;66.47;97951.90;137318;1274;22551;-83
2023/07/02 10:54:40;;;;;;;7.90;3.50;;;;;;;23.81;67.38;97949.94;136790;1274;22981;-83
2023/07/02 10:57:44;;;;;;;4.40;2.70;;;;;;;23.97;67.48;97945.48;136735;1274;22178;-82
2023/07/02 11:00:45;;;;;;;2.90;2.30;;;;;;;23.88;68.61;97941.20;137058;1274;22559;-81
2023/07/02 11:03:49;;;;;;;3.00;2.40;;;;;;;23.87;68.65;97941.98;137172;1274;22725;-82
2023/07/02 11:06:50;;;;;;;;;;;;;;;23.92;68.57;97939.90;136960;1274;22541;-82
2023/07/02 11:09:54;;;;;;;2.20;2.00;;;;;;;24.21;68.25;97932.23;136588;1274;22495;-80
2023/07/02 11:12:55;;;;;;;6.30;2.40;;;;;;;24.21;66.66;97923.89;137257;1274;22196;-81
2023/07/02 11:15:56;;;;;;;4.70;2.60;;;;;;;24.23;66.79;97924.48;136772;1274;22561;-82
2023/07/02 11:18:57;;;;;;;8.60;2.40;;;;;;;24.57;65.72;97920.22;137010;1274;22538;-82
2023/07/02 11:21:58;;;;;;;2.80;2.00;;;;;;;25.01;64.20;97918.48;137515;1274;22512;-82
2023/07/02 11:25:00;;;;;;;2.30;2.10;;;;;;;25.49;62.79;97911.00;136932;1274;22852;-82
2023/07/02 11:28:01;;;;;;;2.20;2.00;;;;;;;25.87;62.24;97910.55;136758;1274;22178;-82
2023/07/02 11:31:03;;;;;;;3.20;2.00;;;;;;;25.62;60.41;97911.63;137376;1274;22534;-82
2023/07/02 11:34:04;;;;;;;3.20;2.10;;;;;;;25.68;62.11;97908.04;136830;1274;22566;-82
2023/07/02 11:37:05;;;;;;;1.90;1.80;;;;;;;26.05;59.54;97908.56;137059;1274;22368;-82
2023/07/02 11:40:06;;;;;;;2.50;1.70;;;;;;;25.79;58.74;97916.95;136929;1274;22605;-80
2023/07/02 11:43:07;;;;;;;3.10;1.90;;;;;;;25.65;58.61;97913.63;136856;1274;22270;-81
2023/07/02 11:46:08;;;;;;;2.10;1.90;;;;;;;25.23;58.18;97911.08;137106;1274;23105;-81
2023/07/02 11:49:10;;;;;;;4.30;2.10;;;;;;;25.08;59.71;97910.36;136912;1274;22536;-80
2023/07/02 11:52:12;;;;;;;3.50;3.00;;;;;;;25.08;58.45;97905.72;137432;1274;22388;-81
2023/07/02 11:55:13;;;;;;;1.90;1.70;;;;;;;24.99;57.59;97904.11;136726;1274;22537;-80
2023/07/02 11:58:14;;;;;;;6.20;2.00;;;;;;;24.84;58.02;97904.70;136796;1274;24206;-80
2023/07/02 12:01:15;;;;;;;2.50;1.70;;;;;;;24.93;55.82;97905.61;137525;1273;22230;-79
2023/07/02 12:04:17;;;;;;;1.70;1.50;;;;;;;24.97;56.65;97903.55;136666;1274;175892;-81
2023/07/02 12:07:18;;;;;;;2.40;1.60;;;;;;;25.17;56.56;97904.67;136693;1274;22611;-81
2023/07/02 12:10:22;;;;;;;1.60;1.50;;;;;;;25.48;56.30;97894.73;137092;1274;22558;-80
2023/07/02 12:13:23;;;;;;;1.70;1.50;;;;;;;25.68;55.55;97896.12;137050;1274;22439;-81
2023/07/02 12:16:24;;;;;;;2.70;1.60;;;;;;;25.92;55.23;97896.52;136929;1268;22316;-82
2023/07/02 12:19:27;;;;;;;2.10;1.90;;;;;;;26.25;53.77;97898.27;137053;1274;23423;-81
2023/07/02 12:22:29;;;;;;;;;;;;;;;26.21;52.79;97895.36;137097;1274;22509;-81
2023/07/02 12:25:30;;;;;;;3.20;1.50;;;;;;;26.10;53.11;97896.25;136823;1274;22886;-81
2023/07/02 12:28:31;;;;;;;4.90;2.10;;;;;;;26.28;52.02;97894.17;136887;1274;22548;-81
2023/07/02 12:31:32;;;;;;;2.10;1.60;;;;;;;26.12;52.39;97893.30;137364;1274;22229;-82
2023/07/02 12:34:33;;;;;;;1.60;1.50;;;;;;;25.73;51.98;97896.13;136901;1274;22532;-82
2023/07/02 12:37:34;;;;;;;1.90;1.70;;;;;;;25.25;52.33;97899.19;136923;1274;22563;-80
2023/07/02 12:40:35;;;;;;;1.70;1.60;;;;;;;24.86;54.20;97903.52;137403;1274;22186;-82
2023/07/02 12:43:37;;;;;;;2.30;1.80;;;;;;;24.79;54.65;97900.39;136676;1274;22603;-82
2023/07/02 12:46:38;;;;;;;2.40;2.30;;;;;;;24.73;55.42;97900.52;136806;1274;22534;-82
2023/07/02 12:49:39;;;;;;;2.00;1.90;;;;;;;24.98;55.58;97901.03;137512;1258;22566;-82
2023/07/02 12:52:40;;;;;;;3.00;1.90;;;;;;;25.15;55.26;97900.53;136884;1274;22827;-82
2023/07/02 12:55:41;;;;;;;2.60;2.00;;;;;;;25.13;55.29;97896.20;136919;1274;22160;-81
2023/07/02 12:58:42;;;;;;;5.40;2.10;;;;;;;25.07;55.45;97898.51;137252;1274;22560;-80
2023/07/02 13:01:43;;;;;;;1.80;1.70;;;;;;;24.66;54.84;97902.75;137092;1274;22553;-81
2023/07/02 13:04:45;;;;;;;1.90;1.70;;;;;;;24.29;56.30;97906.73;136906;1274;22771;-81
2023/07/02 13:07:46;;;;;;;1.90;1.70;;;;;;;24.12;56.43;97911.77;136961;1274;22577;-81
2023/07/02 13:10:47;;;;;;;1.80;1.70;;;;;;;23.99;56.92;97913.75;137306;1274;22198;-81
2023/07/02 13:13:48;;;;;;;2.30;1.90;;;;;;;23.74;57.72;97918.36;136811;1274;23088;-81
2023/07/02 13:16:49;;;;;;;4.20;1.80;;;;;;;23.59;59.71;97934.83;136718;1274;23007;-81
2023/07/02 13:19:50;;;;;;;2.30;2.10;;;;;;;23.06;63.00;97946.50;137510;1274;22251;-82
2023/07/02 13:22:51;;;;;;;2.40;2.30;;;;;;;22.65;65.70;97947.17;136940;1274;22216;-81
2023/07/02 13:25:52;;;;;;;2.00;1.90;;;;;;;22.28;68.30;97956.85;136874;1274;22195;-81
2023/07/02 13:28:53;;;;;;;1.90;1.80;;;;;;;21.88;70.59;97964.75;137233;1274;22642;-81
2023/07/02 13:31:55;;;;;;;1.70;1.60;;;;;;;21.80;71.13;97971.70;136840;1274;22164;-81
2023/07/02 13:34:56;;;;;;;3.60;1.80;;;;;;;21.78;71.26;97979.60;136855;1271;23761;-80
2023/07/02 13:37:59;;;;;;;1.90;1.80;;;;;;;21.62;71.22;97989.54;137205;1274;22611;-84
2023/07/02 13:41:00;;;;;;;2.20;1.80;;;;;;;21.53;72.78;97987.27;137085;1274;22105;-82
2023/07/02 13:44:01;;;;;;;2.00;1.70;;;;;;;21.75;71.12;97981.34;136849;1274;22584;-81
2023/07/02 13:47:02;;;;;;;3.80;1.60;;;;;;;22.00;70.96;97972.35;136418;1274;22629;-81
2023/07/02 13:50:04;;;;;;;2.10;1.50;;;;;;;22.33;69.29;97969.71;136891;1274;22197;-82
2023/07/02 13:53:05;;;;;;;1.80;1.50;;;;;;;22.40;68.08;97962.60;136756;1274;22545;-81
2023/07/02 13:56:06;;;;;;;2.80;1.80;;;;;;;22.57;68.68;97948.84;137116;1274;22541;-81